This is the latest recevied weather packets stored in our database for station/object N2XP. If no packets are shown the sender has not sent any weather packets the latest 10 day(s).
| Time | Temp. | Humidity | Pressure | Rain* | Wind** | Luminosity | Snow |
|---|---|---|---|---|---|---|---|
| 1778196627 | 12.78° C | 53% | 1006.3 hPa | 0 mm | - | - | - |
| 1778195728 | 13.33° C | 51% | 1006.2 hPa | 0 mm | - | - | - |
| 1778194827 | 13.89° C | 48% | 1006.1 hPa | 0 mm | - | - | - |
| 1778193926 | 13.89° C | 45% | 1006.1 hPa | 0 mm | - | - | - |
| 1778193025 | 14.44° C | 44% | 1005.9 hPa | 0 mm | - | - | - |
| 1778192185 | 14.44° C | 42% | 1006.2 hPa | 0 mm | - | - | - |
| 1778191223 | 15.56° C | 39% | 1006.1 hPa | 0 mm | - | - | - |
| 1778190323 | 15.56° C | 40% | 1006.2 hPa | 0 mm | - | - | - |
| 1778189428 | 16.11° C | 37% | 1006.2 hPa | 0 mm | - | - | - |
| 1778188522 | 16.67° C | 39% | 1006.1 hPa | 0 mm | - | - | - |
| 1778187623 | 17.22° C | 37% | 1006 hPa | 0 mm | - | - | - |
| 1778186721 | 17.22° C | 36% | 1006 hPa | 0 mm | - | - | - |
| 1778185829 | 17.22° C | 37% | 1005.9 hPa | 0 mm | - | - | - |
| 1778184917 | 17.22° C | 40% | 1006 hPa | 0 mm | - | - | - |
| 1778184015 | 17.22° C | 39% | 1005.9 hPa | 0 mm | - | - | - |
| 1778183181 | 17.22° C | 40% | 1006.1 hPa | 0 mm | - | - | - |
| 1778182210 | 16.67° C | 39% | 1006.1 hPa | 0 mm | - | - | - |
| 1778181311 | 16.67° C | 37% | 1006.4 hPa | 0 mm | - | - | - |
| 1778180413 | 16.67° C | 39% | 1006.5 hPa | 0 mm | - | - | - |
| 1778179504 | 16.67° C | 41% | 1006.6 hPa | 0 mm | - | - | - |
| 1778178605 | 16.11° C | 45% | 1006.6 hPa | 0 mm | - | - | - |
| 1778177760 | 16.11° C | 44% | 1006.8 hPa | 0 mm | - | - | - |
| 1778176859 | 15.56° C | 46% | 1007 hPa | 0 mm | - | - | - |
| 1778175963 | 15.56° C | 44% | 1007.3 hPa | 0 mm | - | - | - |
| 1778175090 | 15.56° C | 45% | 1007.6 hPa | 0 mm | - | - | - |
* Rain latest hour (hover to see other rain measurements)
** Current wind speed in m/s (hover to see current wind gust speed)